Time;durP1;ratioP1;P1;durP2;ratioP2;P2;SDS_P1;SDS_P2;PMS_P1;PMS_P2;Temp;Humidity;BMP_temperature;BMP_pressure;BME280_temperature;BME280_humidity;BME280_pressure;Samples;Min_cycle;Max_cycle;Signal;HPM_P1;HPM_P2
2024/02/27 00:00:03;;;;;;;34.40;16.30;;;;;;;0.98;100.00;101601.78;106494;1256;71388;-87
2024/02/27 00:02:35;;;;;;;42.60;17.00;;;;;;;0.95;100.00;101602.13;106459;1253;60812;-87
2024/02/27 00:05:03;;;;;;;43.30;17.60;;;;;;;0.94;100.00;101602.48;106376;1257;60617;-86
2024/02/27 00:07:31;;;;;;;33.20;14.70;;;;;;;0.90;100.00;101600.65;106455;1256;72915;-87
2024/02/27 00:09:59;;;;;;;32.00;15.50;;;;;;;0.89;100.00;101600.02;107287;1254;67624;-87
2024/02/27 00:12:28;;;;;;;49.60;20.20;;;;;;;0.88;100.00;101604.77;106246;1259;71368;-87
2024/02/27 00:14:56;;;;;;;76.20;28.10;;;;;;;0.82;100.00;101601.95;106285;1254;60848;-87
2024/02/27 00:17:24;;;;;;;140.90;47.10;;;;;;;0.80;100.00;101603.05;106352;1253;60468;-87
2024/02/27 00:19:51;;;;;;;122.70;41.10;;;;;;;0.78;100.00;101600.61;106852;1253;73822;-88
2024/02/27 00:22:19;;;;;;;80.70;30.10;;;;;;;0.82;100.00;101603.20;106495;1253;67400;-87
2024/02/27 00:24:47;;;;;;;50.40;22.70;;;;;;;0.83;100.00;101603.91;106386;1254;71725;-87
2024/02/27 00:27:15;;;;;;;59.00;23.40;;;;;;;0.81;100.00;101601.65;106372;1257;60844;-87
2024/02/27 00:29:42;;;;;;;54.30;22.50;;;;;;;0.89;100.00;101600.64;106651;1252;60443;-87
2024/02/27 00:32:10;;;;;;;54.40;22.30;;;;;;;0.95;100.00;101602.74;106366;1257;73875;-87
2024/02/27 00:34:37;;;;;;;48.90;21.80;;;;;;;0.96;100.00;101600.64;106434;1253;68429;-87
2024/02/27 00:37:05;;;;;;;62.00;24.90;;;;;;;0.96;100.00;101597.33;106382;1253;72643;-87
2024/02/27 00:39:33;;;;;;;43.90;20.00;;;;;;;0.98;100.00;101598.15;106278;1254;60313;-87
2024/02/27 00:42:03;;;;;;;41.00;17.40;;;;;;;1.01;100.00;101593.84;106728;1254;60600;-87
2024/02/27 00:44:31;;;;;;;32.00;15.50;;;;;;;1.00;100.00;101595.30;106401;1254;73836;-87
2024/02/27 00:46:59;;;;;;;43.80;18.10;;;;;;;1.01;100.00;101598.11;106385;1256;67446;-87
2024/02/27 00:49:26;;;;;;;43.70;17.30;;;;;;;1.01;100.00;101595.65;106365;1259;71382;-87
2024/02/27 00:51:54;;;;;;;50.20;18.20;;;;;;;1.06;100.00;101593.23;107127;1256;60543;-87
2024/02/27 00:54:22;;;;;;;51.20;16.80;;;;;;;1.10;100.00;101594.77;106337;1258;60453;-87
2024/02/27 00:56:49;;;;;;;45.70;16.80;;;;;;;1.13;100.00;101589.20;106403;1258;72897;-87
2024/02/27 00:59:17;;;;;;;51.10;18.50;;;;;;;1.15;100.00;101594.16;106463;1254;68367;-87
2024/02/27 01:01:45;;;;;;;50.20;16.40;;;;;;;1.16;100.00;101594.50;106724;1257;72668;-87
2024/02/27 06:28:32;;;;;;;16.40;6.60;;;;;;;4.52;100.00;101725.80;106544;1260;60468;-87
2024/02/27 06:31:12;;;;;;;21.00;7.40;;;;;;;4.55;100.00;101728.23;106018;1260;60521;-87
2024/02/27 06:33:46;;;;;;;16.90;7.30;;;;;;;4.46;100.00;101729.14;106057;1260;74136;-87
2024/02/27 06:36:26;;;;;;;15.60;6.20;;;;;;;4.47;100.00;101724.77;105983;1257;68425;-88
2024/02/27 06:39:06;;;;;;;20.00;7.10;;;;;;;4.57;100.00;101723.31;106069;1257;72500;-88
2024/02/27 06:41:40;;;;;;;22.90;6.90;;;;;;;4.60;100.00;101728.61;106039;1259;61071;-87
2024/02/27 06:44:14;;;;;;;18.40;7.70;;;;;;;4.58;100.00;101728.64;106189;1260;60659;-86
2024/02/27 06:46:54;;;;;;;18.60;7.60;;;;;;;4.64;100.00;101733.86;105959;1263;73878;-87
2024/02/27 06:49:34;;;;;;;19.10;7.30;;;;;;;4.76;100.00;101732.52;106124;1262;68411;-87
2024/02/27 06:52:08;;;;;;;21.50;7.30;;;;;;;4.90;100.00;101732.25;106142;1262;71423;-87
2024/02/27 06:54:42;;;;;;;21.20;7.20;;;;;;;4.99;100.00;101732.95;106220;1257;60428;-88
2024/02/27 06:57:23;;;;;;;21.60;7.80;;;;;;;5.05;100.00;101732.85;106272;1257;60549;-86
2024/02/27 07:00:04;;;;;;;15.60;6.70;;;;;;;5.28;100.00;101736.21;106128;1258;73959;-87
2024/02/27 07:02:38;;;;;;;17.50;8.30;;;;;;;5.35;100.00;101734.20;106063;1259;67233;-87
2024/02/27 07:05:13;;;;;;;16.60;7.10;;;;;;;5.43;100.00;101736.55;106283;1259;72413;-87
2024/02/27 07:07:52;;;;;;;19.60;7.70;;;;;;;5.42;100.00;101736.46;106098;1263;60587;-87
2024/02/27 07:10:33;;;;;;;17.90;7.00;;;;;;;5.46;100.00;101741.71;105874;1262;61234;-87
2024/02/27 07:13:08;;;;;;;20.90;6.70;;;;;;;5.58;100.00;101743.25;106156;1258;74853;-87
2024/02/27 07:15:42;;;;;;;16.40;6.90;;;;;;;5.70;100.00;101742.08;106139;1260;67362;-87
2024/02/27 07:18:23;;;;;;;15.60;7.90;;;;;;;5.77;100.00;101744.25;106032;1259;74336;-86
2024/02/27 07:21:03;;;;;;;16.00;7.60;;;;;;;5.81;100.00;101746.83;106220;1258;60546;-87
2024/02/27 07:23:37;;;;;;;18.40;7.20;;;;;;;5.81;100.00;101740.94;105923;1257;60690;-88
2024/02/27 07:26:11;;;;;;;19.50;6.80;;;;;;;5.92;100.00;101742.61;106063;1258;76043;-86
2024/02/27 07:28:51;;;;;;;16.60;6.50;;;;;;;6.07;100.00;101745.09;106136;1258;67213;-86
2024/02/27 07:31:31;;;;;;;21.10;7.10;;;;;;;6.17;100.00;101745.88;106035;1258;70956;-87
2024/02/27 07:33:59;;;;;;;16.50;6.70;;;;;;;6.21;100.00;101748.73;106116;1257;61173;-86
2024/02/27 07:36:33;;;;;;;21.00;6.80;;;;;;;6.18;100.00;101744.19;105992;1259;60447;-87
2024/02/27 07:39:07;;;;;;;18.20;6.30;;;;;;;6.09;100.00;101747.60;106080;1265;75741;-87
2024/02/27 07:41:42;;;;;;;18.90;6.20;;;;;;;6.01;100.00;101742.66;106188;1258;69569;-88
2024/02/27 07:44:16;;;;;;;18.20;7.80;;;;;;;5.93;100.00;101743.55;106394;1262;72709;-89
2024/02/27 07:46:50;;;;;;;17.40;7.30;;;;;;;5.89;100.00;101745.41;106085;1263;60638;-86
2024/02/27 07:49:23;;;;;;;23.40;7.00;;;;;;;5.93;100.00;101744.35;106093;1259;60551;-87
2024/02/27 07:51:57;;;;;;;21.60;7.20;;;;;;;5.98;100.00;101744.73;106178;1258;76027;-88
2024/02/27 07:54:32;;;;;;;16.40;7.30;;;;;;;5.99;100.00;101741.89;106286;1259;70711;-89
2024/02/27 07:57:00;;;;;;;15.80;7.70;;;;;;;5.98;100.00;101746.65;105986;1256;73797;-89
2024/02/27 07:59:40;;;;;;;25.20;7.70;;;;;;;6.05;100.00;101748.23;105962;1264;61509;-88
2024/02/27 08:02:08;;;;;;;20.80;7.10;;;;;;;6.13;100.00;101751.82;106260;1259;61380;-89
2024/02/27 08:04:42;;;;;;;16.40;7.20;;;;;;;6.16;100.00;101755.31;106065;1262;75703;-89
2024/02/27 08:07:16;;;;;;;17.20;7.00;;;;;;;6.19;100.00;101755.29;106053;1258;69993;-89
2024/02/27 08:09:50;;;;;;;19.70;6.90;;;;;;;6.21;100.00;101754.53;105954;1259;71451;-90
2024/02/27 08:12:24;;;;;;;20.90;7.10;;;;;;;6.26;100.00;101756.70;105997;1260;60919;-88
2024/02/27 08:14:58;;;;;;;23.60;7.70;;;;;;;6.25;100.00;101757.84;106128;1259;61327;-88
2024/02/27 08:17:32;;;;;;;24.60;7.20;;;;;;;6.31;100.00;101758.14;106048;1257;75000;-88
2024/02/27 08:20:07;;;;;;;18.20;6.90;;;;;;;6.35;100.00;101754.84;106038;1258;69340;-88
2024/02/27 08:22:41;;;;;;;18.90;7.40;;;;;;;6.33;100.00;101758.91;105951;1263;73624;-88
2024/02/27 08:25:09;;;;;;;19.60;8.20;;;;;;;6.30;99.94;101757.02;106198;1259;60342;-89
2024/02/27 08:27:49;;;;;;;31.50;7.90;;;;;;;6.26;100.00;101753.41;106104;1263;60785;-88
2024/02/27 08:30:17;;;;;;;15.90;6.30;;;;;;;6.25;100.00;101751.73;106245;1262;75707;-87
2024/02/27 08:32:51;;;;;;;20.80;8.10;;;;;;;6.21;100.00;101753.69;106129;1259;68729;-87
2024/02/27 08:35:29;;;;;;;19.50;7.70;;;;;;;6.23;100.00;101751.13;106630;1261;73812;-89
2024/02/27 08:38:03;;;;;;;15.40;7.30;;;;;;;6.26;100.00;101750.94;106142;1259;61297;-88
2024/02/27 08:40:38;;;;;;;20.00;7.70;;;;;;;6.23;100.00;101748.29;106062;1258;61060;-90
2024/02/27 08:43:14;;;;;;;18.90;7.70;;;;;;;6.20;100.00;101741.75;106175;1262;76158;-88
2024/02/27 08:45:49;;;;;;;20.10;9.30;;;;;;;6.24;100.00;101742.48;106171;1260;69250;-87
2024/02/27 08:48:29;;;;;;;22.00;8.00;;;;;;;6.23;100.00;101739.23;106159;1264;72459;-86
2024/02/27 08:51:09;;;;;;;15.50;8.30;;;;;;;6.16;100.00;101735.90;106009;1259;61110;-88
2024/02/27 08:53:43;;;;;;;19.90;8.20;;;;;;;6.14;100.00;101738.34;106147;1260;61081;-87
2024/02/27 08:56:17;;;;;;;22.70;9.00;;;;;;;6.16;100.00;101741.08;106043;1259;74724;-87
2024/02/27 08:58:57;;;;;;;23.40;7.80;;;;;;;6.23;100.00;101745.54;106116;1262;70782;-89
2024/02/27 09:01:37;;;;;;;21.90;8.10;;;;;;;6.22;100.00;101747.80;106206;1257;74955;-89
2024/02/27 09:04:11;;;;;;;20.50;8.70;;;;;;;6.24;100.00;101746.10;106432;1262;61032;-87
2024/02/27 09:06:49;;;;;;;46.90;20.60;;;;;;;6.26;100.00;101743.35;106151;1257;62446;-86
2024/02/27 09:09:29;;;;;;;25.20;10.30;;;;;;;6.27;100.00;101744.77;106253;1262;75740;-87
2024/02/27 09:12:09;;;;;;;21.10;8.90;;;;;;;6.35;99.83;101746.61;106136;1263;70837;-86
2024/02/27 09:14:49;;;;;;;30.10;10.40;;;;;;;6.40;99.51;101745.38;106249;1258;74797;-86
2024/02/27 09:17:17;;;;;;;55.40;23.30;;;;;;;6.46;99.92;101747.09;106055;1260;60555;-86
2024/02/27 09:19:57;;;;;;;26.00;13.50;;;;;;;6.57;100.00;101744.83;106065;1259;60336;-86
2024/02/27 09:22:37;;;;;;;18.40;8.20;;;;;;;6.69;98.98;101740.85;106323;1261;75925;-88
2024/02/27 09:25:13;;;;;;;22.00;7.70;;;;;;;6.76;97.53;101742.23;106132;1258;70228;-87
2024/02/27 09:27:47;;;;;;;19.70;8.30;;;;;;;6.75;97.34;101742.96;106195;1262;75068;-86
2024/02/27 09:30:28;;;;;;;21.70;7.60;;;;;;;6.83;98.49;101745.24;105957;1263;61157;-87
2024/02/27 09:33:08;;;;;;;23.50;8.00;;;;;;;6.96;95.90;101748.46;106239;1258;60869;-87
2024/02/27 09:35:42;;;;;;;18.50;7.30;;;;;;;6.91;93.85;101746.09;106204;1262;74951;-87
2024/02/27 09:38:16;;;;;;;16.70;7.60;;;;;;;6.70;95.03;101744.06;106376;1260;70072;-87
2024/02/27 09:40:56;;;;;;;20.40;8.10;;;;;;;6.70;96.45;101741.84;106107;1260;76505;-87
2024/02/27 09:43:36;;;;;;;21.70;8.20;;;;;;;6.78;96.25;101743.08;106253;1263;60575;-87
2024/02/27 09:46:20;;;;;;;23.10;8.60;;;;;;;6.84;95.49;101741.42;106125;1260;61662;-88
2024/02/27 09:48:49;;;;;;;19.40;7.50;;;;;;;6.78;94.95;101742.06;105924;1266;75065;-88
2024/02/27 09:51:30;;;;;;;24.40;8.20;;;;;;;6.79;93.28;101739.85;106404;1259;69069;-87
2024/02/27 09:54:10;;;;;;;20.80;8.50;;;;;;;6.76;92.41;101743.16;105948;1265;75180;-88
2024/02/27 09:56:45;;;;;;;20.60;7.00;;;;;;;6.71;94.38;101744.05;106240;1257;62636;-87
2024/02/27 09:59:17;;;;;;;17.60;7.00;;;;;;;6.72;94.27;101742.01;106116;1257;62129;-89
2024/02/27 10:01:57;;;;;;;14.50;6.00;;;;;;;6.75;92.90;101745.90;106059;1259;76565;-88
2024/02/27 10:04:41;;;;;;;18.50;7.00;;;;;;;6.72;94.38;101746.26;106045;1263;71140;-89
2024/02/27 10:07:15;;;;;;;18.70;6.80;;;;;;;6.67;90.36;101746.42;106114;1259;73813;-89
2024/02/27 10:09:49;;;;;;;22.80;6.80;;;;;;;6.59;90.70;101743.02;106057;1260;60453;-89
2024/02/27 10:12:29;;;;;;;15.60;7.70;;;;;;;6.53;89.57;101740.69;106063;1259;60731;-88
2024/02/27 10:15:11;;;;;;;15.00;7.60;;;;;;;6.41;90.65;101742.69;106340;1257;75635;-90
2024/02/27 10:17:45;;;;;;;22.90;7.20;;;;;;;6.52;94.04;101745.08;106016;1260;71058;-89
2024/02/27 10:20:21;;;;;;;22.10;8.10;;;;;;;6.64;92.78;101742.02;105963;1265;73017;-87
2024/02/27 10:23:03;;;;;;;20.50;7.40;;;;;;;6.66;90.39;101742.85;105912;1262;60399;-90
2024/02/27 10:25:43;;;;;;;23.50;8.10;;;;;;;6.61;88.50;101741.71;105997;1262;61111;-88
2024/02/27 10:28:18;;;;;;;17.10;6.70;;;;;;;6.61;93.37;101741.83;106103;1263;76016;-86
2024/02/27 10:30:51;;;;;;;22.40;7.40;;;;;;;6.81;92.54;101741.13;106162;1260;69612;-86
2024/02/27 10:33:31;;;;;;;17.30;7.80;;;;;;;6.90;90.50;101741.00;106209;1262;74887;-86
2024/02/27 10:36:12;;;;;;;17.70;7.40;;;;;;;7.06;88.23;101736.08;106031;1264;61006;-89
2024/02/27 10:38:46;;;;;;;18.20;7.10;;;;;;;7.07;86.13;101736.10;105958;1260;60997;-87
2024/02/27 10:41:20;;;;;;;18.40;7.60;;;;;;;7.17;84.31;101732.49;106120;1260;74742;-87
2024/02/27 10:44:00;;;;;;;23.80;8.10;;;;;;;7.14;80.51;101734.20;106320;1263;68642;-87
2024/02/27 10:46:50;;;;;;;17.80;7.40;;;;;;;7.08;78.48;101735.89;106407;1263;73236;-87
2024/02/27 10:49:30;;;;;;;18.10;7.20;;;;;;;7.06;79.67;101733.48;108835;1263;60410;-86
2024/02/27 10:52:04;;;;;;;24.70;7.40;;;;;;;7.08;79.24;101728.36;106962;1261;62274;-86
2024/02/27 10:54:38;;;;;;;23.80;8.50;;;;;;;7.06;80.44;101731.13;106130;1256;73969;-87
2024/02/27 10:57:19;;;;;;;18.10;7.10;;;;;;;7.06;80.63;101730.88;106061;1262;71087;-87
2024/02/27 10:59:59;;;;;;;19.40;7.50;;;;;;;7.14;79.09;101729.90;106280;1262;74807;-87
2024/02/27 11:02:33;;;;;;;19.50;7.00;;;;;;;7.11;78.19;101728.99;106264;1257;60544;-86
2024/02/27 11:05:07;;;;;;;19.00;7.80;;;;;;;7.12;77.43;101726.52;105981;1264;61287;-86
2024/02/27 11:07:48;;;;;;;19.30;6.00;;;;;;;7.08;76.63;101726.02;105918;1259;74631;-89
2024/02/27 11:10:31;;;;;;;14.80;7.20;;;;;;;7.07;75.46;101722.52;105750;1260;71265;-87
2024/02/27 11:13:06;;;;;;;18.80;7.30;;;;;;;7.09;75.80;101719.77;105929;1263;73515;-87
2024/02/27 11:15:41;;;;;;;16.40;7.20;;;;;;;7.13;75.86;101711.45;105908;1259;61368;-87
2024/02/27 11:18:21;;;;;;;20.50;6.70;;;;;;;7.21;76.14;101716.84;105946;1260;63197;-87
2024/02/27 11:21:02;;;;;;;15.70;6.10;;;;;;;7.30;74.68;101711.19;105940;1259;75863;-87
2024/02/27 11:23:36;;;;;;;17.10;5.30;;;;;;;7.39;73.94;101713.13;106054;1259;70675;-87
2024/02/27 11:26:10;;;;;;;15.80;5.80;;;;;;;7.44;71.86;101718.59;105882;1259;73883;-87
2024/02/27 11:28:51;;;;;;;23.30;6.10;;;;;;;7.47;70.38;101718.94;106216;1260;61385;-87
2024/02/27 11:31:31;;;;;;;22.80;6.00;;;;;;;7.48;68.32;101718.34;106077;1259;62585;-86
2024/02/27 11:34:06;;;;;;;16.50;6.90;;;;;;;7.45;69.38;101712.77;106118;1257;75805;-85
2024/02/27 11:36:40;;;;;;;21.00;7.00;;;;;;;7.47;71.39;101715.17;106151;1265;69920;-88
2024/02/27 11:39:36;;;;;;;19.20;6.40;;;;;;;7.52;71.12;101714.10;106092;1263;72922;-86
2024/02/27 11:42:38;;;;;;;9.70;5.60;;;;;;;7.50;70.43;101714.29;106166;1273;61575;-85
2024/02/27 11:45:19;;;;;;;21.40;7.70;;;;;;;7.52;70.70;101714.73;106200;1263;63436;-83
2024/02/27 11:47:53;;;;;;;17.00;5.90;;;;;;;7.56;71.65;101709.61;106096;1261;76210;-86
2024/02/27 11:50:34;;;;;;;16.80;6.90;;;;;;;7.66;71.91;101714.18;106228;1262;69863;-86
2024/02/27 11:53:24;;;;;;;19.00;6.30;;;;;;;7.69;69.64;101711.48;106462;1257;73885;-87
2024/02/27 11:56:04;;;;;;;14.70;6.50;;;;;;;7.65;70.62;101710.04;106042;1259;62497;-88
2024/02/27 11:58:44;;;;;;;19.10;6.60;;;;;;;7.64;70.51;101712.88;106281;1256;61953;-90
2024/02/27 12:01:13;;;;;;;16.10;6.60;;;;;;;7.65;70.01;101712.98;105950;1263;76239;-89
2024/02/27 12:03:54;;;;;;;17.10;6.40;;;;;;;7.69;70.37;101711.92;106332;1263;70838;-85
2024/02/27 12:06:34;;;;;;;18.00;6.60;;;;;;;7.73;71.55;101709.48;106687;1265;73257;-86
2024/02/27 12:09:14;;;;;;;19.10;7.50;;;;;;;7.74;72.01;101711.85;106136;1259;62638;-85
2024/02/27 12:11:44;;;;;;;20.80;8.10;;;;;;;7.79;74.19;101715.33;106135;1263;60928;-87
2024/02/27 12:14:25;;;;;;;17.00;5.80;;;;;;;7.88;75.27;101711.41;105878;1267;74920;-85
2024/02/27 12:17:05;;;;;;;19.40;5.90;;;;;;;7.95;72.11;101712.79;106138;1258;70135;-84
2024/02/27 12:19:45;;;;;;;20.40;6.10;;;;;;;8.00;69.81;101716.10;105929;1263;75043;-85
2024/02/27 12:22:14;;;;;;;15.20;6.00;;;;;;;8.02;69.53;101720.23;106054;1265;60410;-84
2024/02/27 12:24:54;;;;;;;19.80;6.60;;;;;;;8.00;69.98;101719.92;106119;1262;62268;-84
2024/02/27 12:27:38;;;;;;;27.90;10.30;;;;;;;8.04;68.91;101718.53;106200;1259;74890;-84
2024/02/27 12:30:20;;;;;;;19.40;6.00;;;;;;;8.02;67.91;101716.49;106247;1263;69200;-84
2024/02/27 12:32:56;;;;;;;20.30;5.40;;;;;;;7.99;66.11;101716.79;106247;1262;75029;-85
2024/02/27 12:35:30;;;;;;;15.40;5.90;;;;;;;8.05;65.83;101719.44;106174;1262;60856;-83
2024/02/27 12:38:10;;;;;;;41.20;7.70;;;;;;;8.06;65.82;101717.45;106015;1260;60517;-83
2024/02/27 12:40:50;;;;;;;17.10;5.30;;;;;;;8.12;65.43;101719.73;106199;1264;73990;-83
2024/02/27 12:43:24;;;;;;;13.20;5.20;;;;;;;8.21;63.46;101718.48;106126;1266;69200;-85
2024/02/27 12:45:58;;;;;;;11.60;4.70;;;;;;;8.22;62.64;101720.27;105915;1260;74871;-84
2024/02/27 12:48:38;;;;;;;15.30;6.40;;;;;;;8.20;62.35;101719.63;106104;1264;60502;-84
2024/02/27 12:51:18;;;;;;;17.80;5.50;;;;;;;8.21;62.43;101716.05;106330;1257;61419;-83
2024/02/27 12:53:52;;;;;;;15.40;5.90;;;;;;;8.12;62.67;101717.85;106182;1259;75986;-85
2024/02/27 12:56:26;;;;;;;15.00;5.00;;;;;;;8.08;62.93;101713.80;106066;1265;70489;-83
2024/02/27 12:59:06;;;;;;;17.60;5.50;;;;;;;8.01;62.83;101713.67;106009;1262;75032;-86
2024/02/27 13:01:46;;;;;;;13.10;4.60;;;;;;;7.94;61.82;101718.61;106002;1263;60515;-86
2024/02/27 13:04:14;;;;;;;21.20;5.40;;;;;;;7.68;61.45;101718.38;106243;1262;61739;-85
2024/02/27 13:06:54;;;;;;;18.80;5.80;;;;;;;7.46;62.60;101719.91;106244;1257;74047;-84
2024/02/27 13:09:35;;;;;;;74.60;11.20;;;;;;;7.41;63.52;101718.25;106205;1263;69750;-85
2024/02/27 13:12:19;;;;;;;16.00;6.50;;;;;;;7.39;63.22;101723.04;106082;1264;73226;-87
2024/02/27 13:14:47;;;;;;;17.80;5.80;;;;;;;7.32;63.71;101722.58;106153;1263;60580;-84
2024/02/27 13:17:26;;;;;;;17.40;5.80;;;;;;;7.30;64.36;101722.36;106333;1263;61178;-83
2024/02/27 13:20:06;;;;;;;24.70;7.60;;;;;;;7.32;65.31;101718.66;106289;1263;73782;-85
2024/02/27 13:22:47;;;;;;;13.30;5.50;;;;;;;7.29;67.54;101719.18;106087;1264;70952;-84
2024/02/27 13:25:18;;;;;;;24.20;6.40;;;;;;;7.29;68.13;101720.64;106096;1263;74652;-84
2024/02/27 13:27:52;;;;;;;17.30;6.10;;;;;;;7.25;68.54;101722.52;106207;1263;61718;-85
2024/02/27 13:30:27;;;;;;;22.70;7.80;;;;;;;7.25;70.78;101720.61;106100;1263;60482;-86
2024/02/27 13:33:02;;;;;;;21.10;7.70;;;;;;;7.23;70.88;101720.79;106159;1259;76073;-85
2024/02/27 13:35:31;;;;;;;15.80;6.30;;;;;;;7.19;71.87;101719.33;106072;1264;69522;-87
2024/02/27 13:38:05;;;;;;;24.40;8.10;;;;;;;7.17;72.16;101715.85;105956;1263;74822;-85
2024/02/27 13:40:39;;;;;;;27.00;6.40;;;;;;;7.15;72.80;101718.08;105951;1264;60461;-85
2024/02/27 13:43:13;;;;;;;16.10;6.10;;;;;;;7.12;72.43;101721.10;106253;1263;60328;-87
2024/02/27 13:45:43;;;;;;;18.00;5.60;;;;;;;7.13;72.79;101719.70;106267;1263;76002;-86
2024/02/27 13:48:18;;;;;;;17.10;5.70;;;;;;;7.11;72.77;101716.33;106288;1257;70575;-85
2024/02/27 13:50:54;;;;;;;16.60;6.50;;;;;;;7.08;72.66;101718.37;106047;1263;73963;-85
2024/02/27 13:53:22;;;;;;;18.20;5.70;;;;;;;7.03;72.89;101717.88;106277;1257;60597;-85
2024/02/27 13:55:57;;;;;;;13.20;5.40;;;;;;;6.95;73.87;101716.75;106084;1263;242084;-86
2024/02/27 13:58:36;;;;;;;17.40;6.50;;;;;;;6.87;74.28;101718.91;106292;1258;75822;-85
2024/02/27 14:01:12;;;;;;;16.10;6.70;;;;;;;6.80;74.64;101721.69;106315;1261;68827;-86
2024/02/27 14:03:40;;;;;;;23.30;7.20;;;;;;;6.78;74.95;101714.44;106095;1263;74975;-85
2024/02/27 14:06:16;;;;;;;15.40;6.20;;;;;;;6.76;75.52;101711.40;106287;1263;60576;-85
2024/02/27 14:08:52;;;;;;;20.10;6.50;;;;;;;6.72;75.55;101708.05;106149;1258;61267;-87
2024/02/27 14:11:26;;;;;;;19.90;6.20;;;;;;;6.68;75.84;101705.54;106282;1257;75972;-87
2024/02/27 14:13:55;;;;;;;16.70;6.00;;;;;;;6.64;76.79;101706.84;108735;1257;68855;-86
2024/02/27 14:16:44;;;;;;;20.30;6.30;;;;;;;6.61;77.41;101703.02;108817;1257;74561;-86
2024/02/27 14:19:20;;;;;;;20.10;6.20;;;;;;;6.59;78.24;101705.16;108896;1257;60359;-87
2024/02/27 14:21:54;;;;;;;14.60;5.60;;;;;;;6.58;79.06;101707.44;108940;1257;60935;-86
2024/02/27 14:24:23;;;;;;;14.30;6.20;;;;;;;6.57;79.65;101709.32;107320;1260;75888;-86
2024/02/27 14:26:59;;;;;;;23.30;8.80;;;;;;;6.50;80.63;101710.17;106586;1262;70971;-87
2024/02/27 14:29:34;;;;;;;19.20;7.30;;;;;;;6.42;82.06;101708.98;106119;1257;75934;-86
2024/02/27 14:32:08;;;;;;;23.30;8.10;;;;;;;6.47;82.57;101712.95;106139;1262;59356;-86
2024/02/27 14:34:38;;;;;;;24.40;6.40;;;;;;;6.52;82.69;101710.86;106209;1258;62201;-86
2024/02/27 14:37:13;;;;;;;16.60;6.80;;;;;;;6.57;82.62;101711.96;105980;1263;75117;-85
2024/02/27 14:39:47;;;;;;;18.40;7.00;;;;;;;6.54;83.17;101715.82;106127;1262;69104;-87
2024/02/27 14:42:15;;;;;;;16.50;6.70;;;;;;;6.45;83.65;101717.73;106011;1257;74868;-86
2024/02/27 14:44:49;;;;;;;19.30;6.90;;;;;;;6.37;84.67;101721.27;106018;1259;61631;-87
2024/02/27 14:47:23;;;;;;;15.90;6.50;;;;;;;6.34;84.89;101723.77;105986;1257;62213;-86
2024/02/27 14:49:56;;;;;;;18.40;6.80;;;;;;;6.25;85.74;101726.89;105960;1263;75785;-86
2024/02/27 14:52:25;;;;;;;19.90;7.50;;;;;;;6.16;86.53;101723.70;106098;1257;70667;-85
2024/02/27 14:54:59;;;;;;;18.20;6.70;;;;;;;6.17;87.08;101723.20;106047;1257;73871;-88
2024/02/27 14:57:34;;;;;;;19.20;7.50;;;;;;;6.11;87.36;101720.98;105924;1260;61470;-86
2024/02/27 15:00:09;;;;;;;26.30;8.10;;;;;;;6.04;87.89;101719.42;105919;1262;61056;-87
2024/02/27 15:02:37;;;;;;;22.60;8.60;;;;;;;6.08;87.32;101722.14;105949;1257;76156;-87
2024/02/27 15:05:11;;;;;;;22.80;8.70;;;;;;;6.02;88.28;101722.95;106027;1263;70655;-87
2024/02/27 15:07:45;;;;;;;22.00;8.60;;;;;;;5.91;88.67;101720.70;106170;1260;74638;-86
2024/02/27 15:10:13;;;;;;;16.80;7.10;;;;;;;5.83;89.29;101721.33;106041;1264;60558;-86
2024/02/27 15:12:44;;;;;;;21.00;7.30;;;;;;;5.76;90.05;101721.94;106048;1263;60906;-89
2024/02/27 15:15:17;;;;;;;19.20;8.30;;;;;;;5.76;90.11;101729.36;106195;1257;77487;-86
2024/02/27 15:17:52;;;;;;;21.30;7.80;;;;;;;5.74;90.21;101730.96;106195;1257;70347;-88
2024/02/27 15:20:20;;;;;;;20.00;7.50;;;;;;;5.69;90.46;101728.36;106197;1260;73636;-88
2024/02/27 15:22:53;;;;;;;18.20;9.00;;;;;;;5.68;90.15;101727.02;106160;1260;61593;-88
2024/02/27 15:25:27;;;;;;;13.70;6.70;;;;;;;5.65;90.34;101728.09;106131;1257;60927;-86
2024/02/27 15:28:01;;;;;;;20.30;7.00;;;;;;;5.59;90.29;101724.23;106260;1257;74633;-87
2024/02/27 15:30:29;;;;;;;20.00;7.30;;;;;;;5.52;90.97;101730.05;106009;1260;71427;-88
2024/02/27 15:33:03;;;;;;;17.70;7.50;;;;;;;5.51;91.75;101732.26;106231;1262;73529;-87
2024/02/27 15:35:38;;;;;;;22.30;7.60;;;;;;;5.54;91.85;101734.64;106255;1263;62061;-87
2024/02/27 15:38:16;;;;;;;18.20;7.60;;;;;;;5.43;92.92;101737.17;106301;1258;60369;-87
2024/02/27 15:40:49;;;;;;;17.40;7.50;;;;;;;5.35;94.09;101737.20;106038;1259;74844;-88
2024/02/27 15:43:23;;;;;;;16.80;7.20;;;;;;;5.29;94.70;101735.76;106123;1258;68665;-87
2024/02/27 15:45:58;;;;;;;18.50;7.80;;;;;;;5.22;95.65;101738.16;106094;1258;74944;-86
2024/02/27 15:48:32;;;;;;;23.20;9.80;;;;;;;5.23;95.59;101734.69;106178;1262;60808;-88
2024/02/27 15:51:10;;;;;;;17.90;7.30;;;;;;;5.16;96.07;101735.45;106039;1259;61155;-87
2024/02/27 15:53:44;;;;;;;18.20;9.40;;;;;;;5.14;97.34;101736.89;106105;1257;76382;-87
2024/02/27 15:56:18;;;;;;;20.50;8.90;;;;;;;5.12;97.78;101736.64;105955;1258;69758;-88
2024/02/27 15:58:52;;;;;;;15.90;7.10;;;;;;;5.05;98.57;101734.89;106122;1262;73339;-87
2024/02/27 16:01:25;;;;;;;19.60;8.10;;;;;;;5.01;99.46;101734.90;106240;1262;60430;-86
2024/02/27 16:04:16;;;;;;;21.00;8.70;;;;;;;5.02;99.60;101731.81;106046;1259;60384;-88
2024/02/27 16:06:56;;;;;;;20.90;9.20;;;;;;;4.99;99.97;101735.04;106644;1259;74817;-87
2024/02/27 16:09:30;;;;;;;19.70;7.80;;;;;;;4.98;100.00;101734.20;106262;1257;70385;-87
2024/02/27 16:12:05;;;;;;;21.30;8.30;;;;;;;4.99;99.99;101736.05;106039;1263;74797;-87
2024/02/27 16:14:52;;;;;;;20.10;8.70;;;;;;;4.98;100.00;101734.20;106216;1262;60569;-86
2024/02/27 16:17:26;;;;;;;16.20;8.20;;;;;;;4.97;100.00;101735.95;106231;1257;60457;-87
2024/02/27 16:20:00;;;;;;;20.60;8.30;;;;;;;4.97;100.00;101736.65;106075;1260;75592;-88
2024/02/27 16:22:36;;;;;;;20.00;7.80;;;;;;;4.94;100.00;101737.88;105985;1262;70530;-87
2024/02/27 16:25:10;;;;;;;18.60;8.20;;;;;;;4.91;100.00;101737.20;106081;1260;74894;-87
2024/02/27 16:27:44;;;;;;;19.10;9.00;;;;;;;4.90;100.00;101738.55;106015;1262;61342;-89
2024/02/27 16:30:20;;;;;;;20.20;8.50;;;;;;;4.92;100.00;101737.05;106153;1257;62548;-87
2024/02/27 16:32:58;;;;;;;23.60;9.60;;;;;;;4.92;100.00;101740.83;105940;1257;76701;-88
2024/02/27 16:35:33;;;;;;;21.40;9.30;;;;;;;4.90;100.00;101739.29;106133;1260;68912;-88
2024/02/27 16:38:09;;;;;;;24.00;9.60;;;;;;;4.91;100.00;101743.95;106106;1263;74798;-89
2024/02/27 16:40:46;;;;;;;21.80;8.80;;;;;;;4.85;100.00;101749.80;106174;1257;60509;-87
2024/02/27 16:43:21;;;;;;;19.00;8.30;;;;;;;4.80;100.00;101745.55;106159;1257;61017;-87
2024/02/27 16:45:57;;;;;;;21.40;8.70;;;;;;;4.74;100.00;101746.63;106111;1257;75997;-89
2024/02/27 16:48:33;;;;;;;22.50;9.90;;;;;;;4.74;100.00;101751.14;106155;1258;69392;-87
2024/02/27 16:51:09;;;;;;;24.70;10.30;;;;;;;4.78;100.00;101753.02;106122;1260;73808;-86
2024/02/27 16:53:45;;;;;;;27.80;11.30;;;;;;;4.78;100.00;101752.14;106066;1260;61686;-89
2024/02/27 16:56:20;;;;;;;31.00;13.00;;;;;;;4.73;100.00;101752.02;106067;1258;60591;-88
2024/02/27 16:58:56;;;;;;;30.30;13.50;;;;;;;4.77;100.00;101750.30;105968;1260;74758;-89
2024/02/27 17:01:31;;;;;;;34.30;16.80;;;;;;;4.80;100.00;101752.80;106000;1257;70727;-86
2024/02/27 17:04:07;;;;;;;38.30;17.20;;;;;;;4.81;100.00;101755.46;106075;1262;73370;-88
2024/02/27 17:06:43;;;;;;;38.60;17.90;;;;;;;4.82;100.00;101755.76;106100;1257;60576;-86
2024/02/27 17:09:19;;;;;;;41.00;19.20;;;;;;;4.78;100.00;101758.84;106065;1257;61520;-88
2024/02/27 17:11:55;;;;;;;38.40;15.90;;;;;;;4.76;100.00;101757.48;106040;1258;76338;-87